Flight Track Log - Related Links

Times and Time Zones

All times are in EDT time to prevent confusion due to time zone crossing. See the RPA3228 flight status page for this flight to view local times or setup timezone preferences in your user account.

Time Position Orientation Groundspeed Altitude Reporting Facility
EDT Latitude Longitude Course Direction KTS MPH feet Rate Location/Type
Tue 07:40:00 AM 36.1333 -86.7000 64° Northeast 162 186 1,400  Level Nashville TRACON
Tue 07:40:30 AM 36.1500 -86.7167 321° Northwest 167 192 2,500 2,667 Climbing Nashville TRACON
Tue 07:41:30 AM 36.2000 -86.7167 360° North 256 295 5,400 3,237 Climbing Nashville TRACON
Tue 07:42:00 AM 36.1598 -86.3011 76° East  Level FlightAware Approximate
Tue 07:43:00 AM 36.1837 -86.1810 80° East  Level FlightAware Approximate
Tue 07:43:02 AM 36.1947 -86.5789 93° East 292 336 10,700  Level Memphis Center
Tue 07:44:00 AM 36.2027 -86.0599 64° Northeast  Level FlightAware Approximate
Tue 07:44:02 AM 36.1956 -86.4708 89° East 301 346 13,300  Level Memphis Center
Tue 07:45:00 AM 36.2471 -85.9490 64° Northeast  Level FlightAware Approximate
Tue 07:45:02 AM 36.1961 -86.3578 90° East 315 362 16,500  Level Memphis Center
Tue 07:46:02 AM 36.1967 -86.2444 90° East 326 375 18,800 2,500 Climbing Memphis Center
Tue 07:47:02 AM 36.1989 -86.1236 89° East 334 384 21,500 2,350 Climbing Memphis Center
Tue 07:48:02 AM 36.2283 -86.0089 72° East 344 396 23,500 2,000 Climbing Memphis Center
Tue 07:49:02 AM 36.2803 -85.8903 61° Northeast 370 426 25,500 1,938 Climbing Memphis Center
Tue 07:49:38 AM 36.3069 -85.8319 60° Northeast 387 445 26,600 1,732 Climbing Indianapolis Center
Tue 07:50:39 AM 36.3600 -85.7181 60° Northeast 396 456 28,300 1,659 Climbing Indianapolis Center
Tue 07:51:41 AM 36.4178 -85.5978 59° Northeast 405 466 30,000 1,306 Climbing Indianapolis Center
Tue 07:52:43 AM 36.4872 -85.4525 59° Northeast 405 466 31,000 484 Climbing Indianapolis Center
Tue 07:53:45 AM 36.5419 -85.3358 60° Northeast 392 451 31,000  Level Indianapolis Center
Tue 07:54:46 AM 36.5939 -85.2225 60° Northeast 381 438 31,000  Level Indianapolis Center
Tue 07:55:48 AM 36.6478 -85.1069 60° Northeast 383 441 31,000  Level Indianapolis Center
Tue 07:56:50 AM 36.7028 -84.9917 59° Northeast 384 442 31,000  Level Indianapolis Center
Tue 07:57:51 AM 36.7564 -84.8772 60° Northeast 382 440 31,000  Level Indianapolis Center
Tue 07:58:53 AM 36.8097 -84.7608 60° Northeast 385 443 31,000  Level Indianapolis Center
Tue 07:59:55 AM 36.8467 -84.6353 70° East 384 442 31,000  Level Indianapolis Center
Tue 08:00:57 AM 36.8850 -84.5011 70° East 390 449 31,000  Level Indianapolis Center
Tue 08:01:59 AM 36.9261 -84.3539 71° East 385 443 31,000  Level Indianapolis Center
Tue 08:03:00 AM 36.9608 -84.2275 71° East 383 441 31,000  Level Indianapolis Center
Tue 08:04:02 AM 36.9961 -84.1006 71° East 386 444 31,000  Level Indianapolis Center
Tue 08:05:04 AM 37.0322 -83.9733 70° East 387 445 31,000  Level Indianapolis Center
Tue 08:06:06 AM 37.0675 -83.8475 71° East 382 440 31,000  Level Indianapolis Center
Tue 08:07:08 AM 37.1019 -83.7200 71° East 384 442 31,000  Level Indianapolis Center
Tue 08:08:09 AM 37.1378 -83.5933 70° East 383 441 31,000  Level Indianapolis Center
Tue 08:09:11 AM 37.1786 -83.4444 71° East 383 441 31,000  Level Indianapolis Center
Tue 08:10:13 AM 37.2133 -83.3192 71° East 380 437 31,000  Level Indianapolis Center
Tue 08:11:15 AM 37.2469 -83.1933 71° East 377 434 31,000  Level Indianapolis Center
Tue 08:12:17 AM 37.2806 -83.0653 72° East 381 438 31,000  Level Indianapolis Center
Tue 08:13:18 AM 37.3150 -82.9392 71° East 378 435 31,000  Level Indianapolis Center
Tue 08:14:20 AM 37.3481 -82.8111 72° East 380 437 31,000  Level Indianapolis Center
Tue 08:15:22 AM 37.3817 -82.6833 72° East 382 440 31,000  Level Indianapolis Center
Tue 08:16:24 AM 37.4147 -82.5578 72° East 376 433 31,000  Level Indianapolis Center
Tue 08:17:26 AM 37.4539 -82.4114 71° East 376 433 31,000  Level Indianapolis Center
Tue 08:18:27 AM 37.4872 -82.2869 71° East 375 432 31,000  Level Indianapolis Center
Tue 08:19:29 AM 37.5183 -82.1617 73° East 374 430 31,000  Level Indianapolis Center
Tue 08:20:31 AM 37.5508 -82.0358 72° East 376 433 31,000  Level Indianapolis Center
Tue 08:21:33 AM 37.5819 -81.9106 73° East 374 430 31,000  Level Indianapolis Center
Tue 08:22:35 AM 37.6147 -81.7850 72° East 376 433 31,000  Level Indianapolis Center
Tue 08:23:37 AM 37.6478 -81.6586 72° East 378 435 31,000  Level Indianapolis Center
Tue 08:24:39 AM 37.6847 -81.5119 72° East 376 433 31,000  Level Indianapolis Center
Tue 08:25:41 AM 37.7147 -81.3925 72° East 376 433 31,000  Level Indianapolis Center
Tue 08:26:43 AM 37.7447 -81.2678 73° East 380 437 31,000  Level Indianapolis Center
Tue 08:27:44 AM 37.7822 -81.1208 72° East 378 435 31,000  Level Indianapolis Center
Tue 08:28:46 AM 37.8239 -81.0033 66° East 383 441 31,000  Level Indianapolis Center
Tue 08:29:48 AM 37.8667 -80.8806 66° East 382 440 31,000  Level Indianapolis Center
Tue 08:30:50 AM 37.9094 -80.7586 66° East 381 438 31,000  Level Indianapolis Center
Tue 08:31:52 AM 37.9525 -80.6356 66° East 383 441 31,000  Level Indianapolis Center
Tue 08:32:54 AM 38.0047 -80.4886 66° East 382 440 31,000  Level Indianapolis Center
Tue 08:33:56 AM 38.0439 -80.3775 66° East 385 443 31,000  Level Indianapolis Center
Tue 08:34:57 AM 38.0917 -80.2411 66° East 383 441 31,000  Level Indianapolis Center
Tue 08:35:59 AM 38.1375 -80.1122 66° East 384 442 31,000  Level Indianapolis Center
Tue 08:37:01 AM 38.1806 -79.9922 65° Northeast 381 438 31,000  Level Indianapolis Center
Tue 08:38:03 AM 38.2236 -79.8714 66° East 384 442 31,000  Level Indianapolis Center
Tue 08:39:05 AM 38.2742 -79.7258 66° East 384 442 31,000  Level Indianapolis Center
Tue 08:40:07 AM 38.3153 -79.6044 67° East 383 441 31,000  Level Indianapolis Center
Tue 08:41:17 AM 38.3717 -79.4558 64° Northeast 386 444 31,000 -687 Level Washington Center
Tue 08:42:18 AM 38.4086 -79.3464 67° East 386 444 29,500 -1,563 Descending Washington Center
Tue 08:43:16 AM 38.4419 -79.2128 72° East 386 444 27,900 756 Descending Washington Center
Tue 08:44:17 AM 38.4667 -79.0761 77° East 386 444 31,000 -942 Climbing Washington Center
Tue 08:45:17 AM 38.4875 -78.9392 79° East 386 444 26,000 -2,479 Descending Washington Center
Tue 08:46:18 AM 38.5125 -78.7811 79° East 407 468 26,000  Level Washington Center
Tue 08:47:16 AM 38.5328 -78.6414 79° East 407 468 26,000 -1,160 Level Washington Center
Tue 08:48:17 AM 38.5550 -78.5042 78° East 407 468 23,700 -2,508 Descending Washington Center
Tue 08:49:18 AM 38.5789 -78.3722 77° East 395 455 20,900 -2,331 Descending Washington Center
Tue 08:50:18 AM 38.6006 -78.2428 78° East 384 442 19,000 -1,455 Descending Washington Center
Tue 08:51:30 AM 38.6386 -78.1247 68° East 364 419 17,700 -1,649 Descending Washington Center
Tue 08:52:29 AM 38.6833 -77.9853 68° East 352 405 15,400 -2,017 Descending Washington Center
Tue 08:53:29 AM 38.7189 -77.8719 68° East 346 398 13,700 -1,537 Descending Washington Center
Tue 08:54:30 AM 38.7622 -77.7828 58° Northeast 318 366 12,300 -1,311 Descending Washington Center
Tue 08:55:28 AM 38.8156 -77.7017 50° Northeast 297 342 11,100 -1,220 Descending Washington Center
Tue 08:56:33 AM 38.8500 -77.6000 66° East 289 333 9,800 -1,150 Descending Potomac TRACON
Tue 08:57:28 AM 38.8833 -77.5167 63° Northeast 290 334 8,800 -1,200 Descending Potomac TRACON
Tue 08:58:28 AM 38.9000 -77.4167 78° East 294 338 7,500 -1,250 Descending Potomac TRACON
Tue 08:59:28 AM 38.8667 -77.3333 117° Southeast 277 319 6,300 -750 Descending Potomac TRACON
Tue 09:00:28 AM 38.8333 -77.2500 117° Southeast 241 277 6,000 -158 Descending Potomac TRACON
Tue 09:01:22 AM 38.8000 -77.1833 123° Southeast 242 278 6,000 -222 Level Potomac TRACON
Tue 09:02:16 AM 38.7667 -77.1167 123° Southeast 245 282 5,600 -947 Descending Potomac TRACON
Tue 09:03:16 AM 38.7000 -77.1167 180° South 240 276 4,200 -842 Descending Potomac TRACON
Tue 09:04:10 AM 38.6333 -77.1000 169° South 212 244 4,000 -158 Descending Potomac TRACON
Tue 09:05:10 AM 38.6167 -77.0667 123° Southeast 202 232 3,900 -579 Descending Potomac TRACON
Tue 09:06:04 AM 38.6500 -77.0333 38° Northeast 169 194 2,900 -737 Descending Potomac TRACON
Tue 09:07:04 AM 38.7000 -77.0333 360° North 170 196 2,500 -400 Descending Potomac TRACON

Login

Don't have an account? Register now (free) for customized features, flight alerts, and more!